TimePST,TemperatureF,Dew PointF,Humidity,Sea Level PressureIn,VisibilityMPH,Wind Direction,Wind SpeedMPH,Gust SpeedMPH,PrecipitationIn,Events,Conditions,WindDirDegrees,DateUTC
12:56 AM,30.0,17.1,59,30.17,10.0,North,5.8,-,N/A,,Clear,10,2013-01-08 08:56:00
1:56 AM,28.9,16.0,58,30.15,10.0,South,3.5,-,N/A,,Clear,190,2013-01-08 09:56:00
2:56 AM,25.0,12.9,60,30.16,10.0,North,5.8,-,N/A,,Clear,350,2013-01-08 10:56:00
3:56 AM,27.0,14.0,58,30.17,10.0,Calm,Calm,-,N/A,,Clear,0,2013-01-08 11:56:00
4:56 AM,27.0,14.0,58,30.16,10.0,ESE,3.5,-,N/A,,Clear,120,2013-01-08 12:56:00
5:56 AM,21.9,10.9,63,30.19,10.0,ENE,3.5,-,N/A,,Clear,70,2013-01-08 13:56:00
6:56 AM,26.1,12.9,58,30.23,10.0,Calm,Calm,-,N/A,,Clear,0,2013-01-08 14:56:00
7:56 AM,28.9,15.1,56,30.26,10.0,Calm,Calm,-,N/A,,Clear,0,2013-01-08 15:56:00
8:56 AM,39.0,21.0,49,30.27,10.0,Calm,Calm,-,N/A,,Clear,0,2013-01-08 16:56:00
9:56 AM,46.0,21.0,37,30.27,10.0,Calm,Calm,-,N/A,,Clear,0,2013-01-08 17:56:00
10:56 AM,54.0,21.9,29,30.22,10.0,Calm,Calm,-,N/A,,Clear,0,2013-01-08 18:56:00
11:56 AM,59.0,23.0,25,30.20,10.0,ENE,3.5,-,N/A,,Clear,70,2013-01-08 19:56:00
12:56 PM,63.0,26.1,25,30.18,10.0,NE,5.8,-,N/A,,Clear,50,2013-01-08 20:56:00
1:56 PM,64.9,27.0,24,30.17,10.0,ENE,3.5,-,N/A,,Clear,60,2013-01-08 21:56:00
2:56 PM,64.9,26.1,23,30.17,10.0,ENE,5.8,-,N/A,,Clear,60,2013-01-08 22:56:00
3:56 PM,64.0,26.1,24,30.17,10.0,NE,6.9,-,N/A,,Clear,40,2013-01-08 23:56:00
4:56 PM,60.1,25.0,26,30.19,10.0,Calm,Calm,-,N/A,,Clear,0,2013-01-09 00:56:00
5:56 PM,48.9,21.9,35,30.22,10.0,North,3.5,-,N/A,,Clear,10,2013-01-09 01:56:00
6:56 PM,44.1,21.9,42,30.23,10.0,West,5.8,-,N/A,,Clear,270,2013-01-09 02:56:00
7:56 PM,41.0,21.9,47,30.25,10.0,WNW,5.8,-,N/A,,Clear,300,2013-01-09 03:56:00
8:56 PM,37.9,21.0,51,30.26,10.0,West,6.9,-,N/A,,Clear,280,2013-01-09 04:56:00
9:56 PM,39.9,24.1,53,30.25,10.0,WSW,3.5,-,N/A,,Clear,240,2013-01-09 05:56:00
10:56 PM,37.9,21.9,53,30.26,10.0,Calm,Calm,-,N/A,,Clear,0,2013-01-09 06:56:00
11:56 PM,35.1,21.0,57,30.26,10.0,WNW,4.6,-,N/A,,Clear,290,2013-01-09 07:56:00